Buoy 46623

sailwx.info

Track history (hours):
 
Tides and Currents Weather Stations Pressure Air Temp Water Temp Dewpoint Dewpoint Depression Visibility Wind Speed Wind Dir Waves Ship Positions

Drifting buoy 46623

Last reported at 2018-May-25 23:00 UTC. Time now 2018-May-26 03:55 UTC.
Position N 16°25' E 165°13'.

Date/timePositionNaut miles runAvg speedWind from/ knotsBaromVisibWave heightAir tempDewpointWater temp
2018-May-25 23:00N 16°25' E 165°13'2 1.8
2018-May-25 22:00N 16°24' E 165°15'2 2.1
2018-May-25 21:00N 16°23' E 165°17'0 0.0
2018-May-25 20:00N 16°23' E 165°17'1 0.8
2018-May-25 19:00N 16°23' E 165°16'3 3.3
2018-May-25 18:00N 16°21' E 165°19'2 2.4
2018-May-25 17:00N 16°20' E 165°21'0 0.0
2018-May-25 16:00N 16°20' E 165°21'6 1.3
2018-May-25 11:00N 16°17' E 165°27'0 0.0
2018-May-25 10:00N 16°17' E 165°27'3 2.9
2018-May-25 09:00N 16°17' E 165°30'0 0.0
2018-May-25 08:00N 16°17' E 165°30'3 3.1
2018-May-25 07:00N 16°16' E 165°33'0 0.0
2018-May-25 06:00N 16°16' E 165°33'0 0.0
2018-May-25 04:00N 16°16' E 165°33'0 0.0
2018-May-25 03:00N 16°16' E 165°33'5 1.2
2018-May-24 23:00N 16°16' E 165°38'0 0.0
2018-May-24 22:00N 16°16' E 165°38'1 1.2
2018-May-24 21:00N 16°16' E 165°39'0 0.0
2018-May-24 20:00N 16°16' E 165°39'1 1.2
2018-May-24 19:00N 16°14' E 165°39'1 0.6
2018-May-24 18:00N 16°14' E 165°40'0 0.0
2018-May-24 17:00N 16°14' E 165°40'0 0.0
2018-May-24 16:00N 16°14' E 165°40'6 1.0
2018-May-24 10:00N 16°10' E 165°44'1 0.8
2018-May-24 09:00N 16°10' E 165°45'1 0.8
2018-May-24 08:00N 16°09' E 165°46'1 0.6
2018-May-24 07:00N 16°08' E 165°46'1 1.3
2018-May-24 06:00N 16°09' E 165°47'2 1.9
2018-May-24 05:00N 16°07' E 165°46'0 0.0
2018-May-24 04:00N 16°07' E 165°46'0 0.0
2018-May-24 03:00N 16°07' E 165°46'7 1.8
2018-May-23 23:00N 16°04' E 165°53'1 0.6
2018-May-23 22:00N 16°04' E 165°53'1 1.3
2018-May-23 21:00N 16°03' E 165°54'1 0.6
2018-May-23 20:00N 16°03' E 165°55'3 3.1
2018-May-23 19:00N 16°02' E 165°58'1 0.3
2018-May-23 17:00N 16°02' E 165°58'1 0.8
2018-May-23 16:00N 16°02' E 165°58'0 0.0
2018-May-23 15:00N 16°02' E 165°58'4 1.0
2018-May-23 11:00N 16°01' E 166°02'2 1.7
2018-May-23 10:00N 16°01' E 166°04'0 0.0
2018-May-23 09:00N 16°01' E 166°04'1 0.6
2018-May-23 08:00N 16°01' E 166°05'1 1.3
2018-May-23 07:00N 16°01' E 166°06'1 0.6
2018-May-23 06:00N 16°01' E 166°07'1 1.2
2018-May-23 05:00N 16°01' E 166°08'0 0.0
2018-May-23 04:00N 16°01' E 166°08'3 0.6
2018-May-22 23:00N 16°02' E 166°11'1 0.8
2018-May-22 22:00N 16°01' E 166°11'1 0.6
2018-May-22 21:00N 16°01' E 166°12'0 0.0
2018-May-22 20:00N 16°01' E 166°12'0 0.0
2018-May-22 19:00N 16°01' E 166°12'2 1.7
2018-May-22 18:00N 16°01' E 166°14'1 0.8
2018-May-22 17:00N 16°01' E 166°13'1 0.8
2018-May-22 16:00N 16°01' E 166°13'0 0.0
2018-May-22 15:00N 16°01' E 166°13'4 0.9
2018-May-22 10:00N 15°59' E 166°17'1 0.6
2018-May-22 09:00N 15°59' E 166°17'1 0.8
2018-May-22 08:00N 15°59' E 166°18'2 1.8
2018-May-22 07:00N 15°58' E 166°20'1 0.6
2018-May-22 06:00N 15°58' E 166°19'0 0.0
2018-May-22 05:00N 15°58' E 166°19'1 1.3
2018-May-22 04:00N 15°58' E 166°20'1 0.6
2018-May-22 03:00N 15°58' E 166°20'0 0.0
2018-May-22 02:00N 15°58' E 166°20'5 1.7
2018-May-21 23:00N 15°57' E 166°25'2 0.9
2018-May-21 21:00N 15°57' E 166°27'0 0.0
2018-May-21 20:00N 15°57' E 166°27'1 1.2
2018-May-21 19:00N 15°57' E 166°28'1 0.6
2018-May-21 18:00N 15°57' E 166°29'1 1.2
2018-May-21 17:00N 15°57' E 166°30'1 0.8
2018-May-21 16:00N 15°56' E 166°31'0 0.0
2018-May-21 15:00N 15°56' E 166°31'4 1.0
2018-May-21 11:00N 15°58' E 166°34'1 0.8
2018-May-21 10:00N 15°59' E 166°35'1 0.6
2018-May-21 09:00N 15°59' E 166°35'1 0.3
2018-May-21 07:00N 15°59' E 166°36'1 0.6
2018-May-21 06:00N 15°59' E 166°37'0 0.0
2018-May-21 05:00N 15°59' E 166°37'1 0.8
2018-May-21 04:00N 15°59' E 166°37'0 0.0
2018-May-21 03:00N 15°59' E 166°37'3 0.7
2018-May-20 23:00N 16°00' E 166°40'1 0.6
2018-May-20 22:00N 16°00' E 166°41'1 0.8
2018-May-20 21:00N 15°59' E 166°41'1 0.7
2018-May-20 19:00N 15°59' E 166°43'0 0.0
2018-May-20 18:00N 15°59' E 166°43'1 1.3
2018-May-20 17:00N 15°58' E 166°44'3 0.5
2018-May-20 10:00N 15°58' E 166°47'2 2.1
2018-May-20 09:00N 15°57' E 166°49'1 0.6
2018-May-20 08:00N 15°58' E 166°49'1 0.8
2018-May-20 07:00N 15°57' E 166°50'0 0.0
2018-May-20 06:00N 15°57' E 166°50'0 0.0
2018-May-20 05:00N 15°57' E 166°50'2 1.7
2018-May-20 04:00N 15°56' E 166°51'0 0.0
2018-May-20 03:00N 15°56' E 166°51'5 1.2
2018-May-19 23:00N 15°56' E 166°56'2 2.1
2018-May-19 22:00N 15°58' E 166°58'0 0.0
2018-May-19 21:00N 15°58' E 166°58'1 0.6
2018-May-19 20:00N 15°58' E 166°57'2 1.8
2018-May-19 19:00N 15°58' E 166°59'0 0.0
2018-May-19 18:00N 15°58' E 166°59'4 0.5
2018-May-19 10:00N 15°59' E 167°03'0 0.0
2018-May-19 09:00N 15°59' E 167°03'0 0.0
2018-May-19 08:00N 15°59' E 167°03'1 0.6
2018-May-19 07:00N 16°00' E 167°03'1 1.2
2018-May-19 06:00N 16°00' E 167°04'0 0.0
2018-May-19 05:00N 16°00' E 167°04'1 1.3
2018-May-19 04:00N 15°59' E 167°05'0 0.0
2018-May-19 03:00N 15°59' E 167°05'2 0.6
2018-May-18 23:00N 15°59' E 167°08'1 1.3
2018-May-18 22:00N 15°58' E 167°09'0 0.0
2018-May-18 21:00N 15°58' E 167°09'0 0.0
2018-May-18 20:00N 15°58' E 167°09'3 1.3
2018-May-18 18:00N 15°59' E 167°11'2 2.4
2018-May-18 17:00N 15°59' E 167°14'6 1.0
2018-May-18 11:00N 16°01' E 167°20'1 1.3
2018-May-18 10:00N 16°01' E 167°21'1 1.2
2018-May-18 09:00N 16°01' E 167°22'1 1.3
2018-May-18 08:00N 16°02' E 167°23'3 0.9
2018-May-18 05:00N 16°03' E 167°26'1 0.8
2018-May-18 04:00N 16°04' E 167°26'5 0.9
2018-May-17 23:00N 16°07' E 167°29'1 0.6
2018-May-17 21:00N 16°07' E 167°31'2 0.9
2018-May-17 19:00N 16°08' E 167°32'1 0.6
2018-May-17 18:00N 16°08' E 167°33'4 4.2
2018-May-17 17:00N 16°11' E 167°36'0 0.0
2018-May-17 16:00N 16°11' E 167°36'1 0.2
2018-May-17 10:00N 16°10' E 167°37'0 0.0
2018-May-17 09:00N 16°10' E 167°37'1 0.6
2018-May-17 08:00N 16°10' E 167°38'2 1.7
2018-May-17 07:00N 16°09' E 167°39'1 0.6
2018-May-17 06:00N 16°09' E 167°40'2 1.7
2018-May-17 05:00N 16°09' E 167°41'0 0.0
2018-May-17 04:00N 16°09' E 167°41'5 0.9
2018-May-16 23:00N 16°10' E 167°46'1 0.8
2018-May-16 22:00N 16°09' E 167°47'2 1.7
2018-May-16 21:00N 16°09' E 167°49'1 0.8
2018-May-16 20:00N 16°10' E 167°49'2 1.7
2018-May-16 19:00N 16°10' E 167°51'1 0.3
2018-May-16 17:00N 16°10' E 167°52'0 0.0
2018-May-16 16:00N 16°10' E 167°52'5 1.1
2018-May-16 11:00N 16°13' E 167°56'1 0.6
2018-May-16 10:00N 16°13' E 167°57'1 1.2
2018-May-16 09:00N 16°13' E 167°58'1 0.6
2018-May-16 08:00N 16°13' E 167°59'2 1.7
2018-May-16 07:00N 16°14' E 168°00'6 6.2
2018-May-16 06:00N 16°18' E 168°05'0 0.0
2018-May-16 04:00N 16°18' E 168°05'0 0.0
2018-May-16 03:00N 16°18' E 168°05'0 0.0
2018-May-15 23:00N 16°18' E 168°05'  
Track history (hours):
 
Tides and Currents Weather Stations Pressure Air Temp Water Temp Dewpoint Dewpoint Depression Visibility Wind Speed Wind Dir Waves Ship Positions

Drifting buoy 46623

Last reported at 2018-May-25 23:00 UTC. Time now 2018-May-26 03:55 UTC.
Position N 16°25' E 165°13'.

Date/timePositionNaut miles runAvg speedWind from/ knotsBaromVisibWave heightAir tempDewpointWater temp
2018-May-25 23:00N 16°25' E 165°13'2 1.8
2018-May-25 22:00N 16°24' E 165°15'2 2.1
2018-May-25 21:00N 16°23' E 165°17'0 0.0
2018-May-25 20:00N 16°23' E 165°17'1 0.8
2018-May-25 19:00N 16°23' E 165°16'3 3.3
2018-May-25 18:00N 16°21' E 165°19'2 2.4
2018-May-25 17:00N 16°20' E 165°21'0 0.0
2018-May-25 16:00N 16°20' E 165°21'6 1.3
2018-May-25 11:00N 16°17' E 165°27'0 0.0
2018-May-25 10:00N 16°17' E 165°27'3 2.9
2018-May-25 09:00N 16°17' E 165°30'0 0.0
2018-May-25 08:00N 16°17' E 165°30'3 3.1
2018-May-25 07:00N 16°16' E 165°33'0 0.0
2018-May-25 06:00N 16°16' E 165°33'0 0.0
2018-May-25 04:00N 16°16' E 165°33'0 0.0
2018-May-25 03:00N 16°16' E 165°33'5 1.2
2018-May-24 23:00N 16°16' E 165°38'0 0.0
2018-May-24 22:00N 16°16' E 165°38'1 1.2
2018-May-24 21:00N 16°16' E 165°39'0 0.0
2018-May-24 20:00N 16°16' E 165°39'1 1.2
2018-May-24 19:00N 16°14' E 165°39'1 0.6
2018-May-24 18:00N 16°14' E 165°40'0 0.0
2018-May-24 17:00N 16°14' E 165°40'0 0.0
2018-May-24 16:00N 16°14' E 165°40'6 1.0
2018-May-24 10:00N 16°10' E 165°44'1 0.8
2018-May-24 09:00N 16°10' E 165°45'1 0.8
2018-May-24 08:00N 16°09' E 165°46'1 0.6
2018-May-24 07:00N 16°08' E 165°46'1 1.3
2018-May-24 06:00N 16°09' E 165°47'2 1.9
2018-May-24 05:00N 16°07' E 165°46'0 0.0
2018-May-24 04:00N 16°07' E 165°46'0 0.0
2018-May-24 03:00N 16°07' E 165°46'7 1.8
2018-May-23 23:00N 16°04' E 165°53'1 0.6
2018-May-23 22:00N 16°04' E 165°53'1 1.3
2018-May-23 21:00N 16°03' E 165°54'1 0.6
2018-May-23 20:00N 16°03' E 165°55'3 3.1
2018-May-23 19:00N 16°02' E 165°58'1 0.3
2018-May-23 17:00N 16°02' E 165°58'1 0.8
2018-May-23 16:00N 16°02' E 165°58'0 0.0
2018-May-23 15:00N 16°02' E 165°58'4 1.0
2018-May-23 11:00N 16°01' E 166°02'2 1.7
2018-May-23 10:00N 16°01' E 166°04'0 0.0
2018-May-23 09:00N 16°01' E 166°04'1 0.6
2018-May-23 08:00N 16°01' E 166°05'1 1.3
2018-May-23 07:00N 16°01' E 166°06'1 0.6
2018-May-23 06:00N 16°01' E 166°07'1 1.2
2018-May-23 05:00N 16°01' E 166°08'0 0.0
2018-May-23 04:00N 16°01' E 166°08'3 0.6
2018-May-22 23:00N 16°02' E 166°11'1 0.8
2018-May-22 22:00N 16°01' E 166°11'1 0.6
2018-May-22 21:00N 16°01' E 166°12'0 0.0
2018-May-22 20:00N 16°01' E 166°12'0 0.0
2018-May-22 19:00N 16°01' E 166°12'2 1.7
2018-May-22 18:00N 16°01' E 166°14'1 0.8
2018-May-22 17:00N 16°01' E 166°13'1 0.8
2018-May-22 16:00N 16°01' E 166°13'0 0.0
2018-May-22 15:00N 16°01' E 166°13'4 0.9
2018-May-22 10:00N 15°59' E 166°17'1 0.6
2018-May-22 09:00N 15°59' E 166°17'1 0.8
2018-May-22 08:00N 15°59' E 166°18'2 1.8
2018-May-22 07:00N 15°58' E 166°20'1 0.6
2018-May-22 06:00N 15°58' E 166°19'0 0.0
2018-May-22 05:00N 15°58' E 166°19'1 1.3
2018-May-22 04:00N 15°58' E 166°20'1 0.6
2018-May-22 03:00N 15°58' E 166°20'0 0.0
2018-May-22 02:00N 15°58' E 166°20'5 1.7
2018-May-21 23:00N 15°57' E 166°25'2 0.9
2018-May-21 21:00N 15°57' E 166°27'0 0.0
2018-May-21 20:00N 15°57' E 166°27'1 1.2
2018-May-21 19:00N 15°57' E 166°28'1 0.6
2018-May-21 18:00N 15°57' E 166°29'1 1.2
2018-May-21 17:00N 15°57' E 166°30'1 0.8
2018-May-21 16:00N 15°56' E 166°31'0 0.0
2018-May-21 15:00N 15°56' E 166°31'4 1.0
2018-May-21 11:00N 15°58' E 166°34'1 0.8
2018-May-21 10:00N 15°59' E 166°35'1 0.6
2018-May-21 09:00N 15°59' E 166°35'1 0.3
2018-May-21 07:00N 15°59' E 166°36'1 0.6
2018-May-21 06:00N 15°59' E 166°37'0 0.0
2018-May-21 05:00N 15°59' E 166°37'1 0.8
2018-May-21 04:00N 15°59' E 166°37'0 0.0
2018-May-21 03:00N 15°59' E 166°37'3 0.7
2018-May-20 23:00N 16°00' E 166°40'1 0.6
2018-May-20 22:00N 16°00' E 166°41'1 0.8
2018-May-20 21:00N 15°59' E 166°41'1 0.7
2018-May-20 19:00N 15°59' E 166°43'0 0.0
2018-May-20 18:00N 15°59' E 166°43'1 1.3
2018-May-20 17:00N 15°58' E 166°44'3 0.5
2018-May-20 10:00N 15°58' E 166°47'2 2.1
2018-May-20 09:00N 15°57' E 166°49'1 0.6
2018-May-20 08:00N 15°58' E 166°49'1 0.8
2018-May-20 07:00N 15°57' E 166°50'0 0.0
2018-May-20 06:00N 15°57' E 166°50'0 0.0
2018-May-20 05:00N 15°57' E 166°50'2 1.7
2018-May-20 04:00N 15°56' E 166°51'0 0.0
2018-May-20 03:00N 15°56' E 166°51'5 1.2
2018-May-19 23:00N 15°56' E 166°56'2 2.1
2018-May-19 22:00N 15°58' E 166°58'0 0.0
2018-May-19 21:00N 15°58' E 166°58'1 0.6
2018-May-19 20:00N 15°58' E 166°57'2 1.8
2018-May-19 19:00N 15°58' E 166°59'0 0.0
2018-May-19 18:00N 15°58' E 166°59'4 0.5
2018-May-19 10:00N 15°59' E 167°03'0 0.0
2018-May-19 09:00N 15°59' E 167°03'0 0.0
2018-May-19 08:00N 15°59' E 167°03'1 0.6
2018-May-19 07:00N 16°00' E 167°03'1 1.2
2018-May-19 06:00N 16°00' E 167°04'0 0.0
2018-May-19 05:00N 16°00' E 167°04'1 1.3
2018-May-19 04:00N 15°59' E 167°05'0 0.0
2018-May-19 03:00N 15°59' E 167°05'2 0.6
2018-May-18 23:00N 15°59' E 167°08'1 1.3
2018-May-18 22:00N 15°58' E 167°09'0 0.0
2018-May-18 21:00N 15°58' E 167°09'0 0.0
2018-May-18 20:00N 15°58' E 167°09'3 1.3
2018-May-18 18:00N 15°59' E 167°11'2 2.4
2018-May-18 17:00N 15°59' E 167°14'6 1.0
2018-May-18 11:00N 16°01' E 167°20'1 1.3
2018-May-18 10:00N 16°01' E 167°21'1 1.2
2018-May-18 09:00N 16°01' E 167°22'1 1.3
2018-May-18 08:00N 16°02' E 167°23'3 0.9
2018-May-18 05:00N 16°03' E 167°26'1 0.8
2018-May-18 04:00N 16°04' E 167°26'5 0.9
2018-May-17 23:00N 16°07' E 167°29'1 0.6
2018-May-17 21:00N 16°07' E 167°31'2 0.9
2018-May-17 19:00N 16°08' E 167°32'1 0.6
2018-May-17 18:00N 16°08' E 167°33'4 4.2
2018-May-17 17:00N 16°11' E 167°36'0 0.0
2018-May-17 16:00N 16°11' E 167°36'1 0.2
2018-May-17 10:00N 16°10' E 167°37'0 0.0
2018-May-17 09:00N 16°10' E 167°37'1 0.6
2018-May-17 08:00N 16°10' E 167°38'2 1.7
2018-May-17 07:00N 16°09' E 167°39'1 0.6
2018-May-17 06:00N 16°09' E 167°40'2 1.7
2018-May-17 05:00N 16°09' E 167°41'0 0.0
2018-May-17 04:00N 16°09' E 167°41'5 0.9
2018-May-16 23:00N 16°10' E 167°46'1 0.8
2018-May-16 22:00N 16°09' E 167°47'2 1.7
2018-May-16 21:00N 16°09' E 167°49'1 0.8
2018-May-16 20:00N 16°10' E 167°49'2 1.7
2018-May-16 19:00N 16°10' E 167°51'1 0.3
2018-May-16 17:00N 16°10' E 167°52'0 0.0
2018-May-16 16:00N 16°10' E 167°52'5 1.1
2018-May-16 11:00N 16°13' E 167°56'1 0.6
2018-May-16 10:00N 16°13' E 167°57'1 1.2
2018-May-16 09:00N 16°13' E 167°58'1 0.6
2018-May-16 08:00N 16°13' E 167°59'2 1.7
2018-May-16 07:00N 16°14' E 168°00'6 6.2
2018-May-16 06:00N 16°18' E 168°05'0 0.0
2018-May-16 04:00N 16°18' E 168°05'0 0.0
2018-May-16 03:00N 16°18' E 168°05'0 0.0
2018-May-15 23:00N 16°18' E 168°05'  

Dump ship's entire track history